sensor_id;sensor_type;location;lat;lon;timestamp;pressure;altitude;pressure_sealevel;temperature;humidity
28428;BME280;15662;49.128;8.520;2022-12-15T05:17:20;99508.81;;;5.43;50.23
28428;BME280;15662;49.128;8.520;2022-12-15T05:20:09;99527.09;;;5.50;50.27
28428;BME280;15662;49.128;8.520;2022-12-15T05:22:57;99535.94;;;5.46;50.19
28428;BME280;15662;49.128;8.520;2022-12-15T05:25:44;99540.28;;;5.48;50.32
28428;BME280;15662;49.128;8.520;2022-12-15T05:28:32;99542.06;;;5.46;50.42
28428;BME280;15662;49.128;8.520;2022-12-15T05:31:19;99546.31;;;5.53;50.36
28428;BME280;15662;49.128;8.520;2022-12-15T05:34:05;99541.09;;;5.52;50.66
28428;BME280;15662;49.128;8.520;2022-12-15T05:36:33;99544.47;;;5.58;50.48
28428;BME280;15662;49.128;8.520;2022-12-15T05:39:02;99540.97;;;5.58;50.35
28428;BME280;15662;49.128;8.520;2022-12-15T05:41:30;99534.81;;;5.59;50.71
28428;BME280;15662;49.128;8.520;2022-12-15T05:44:00;99531.31;;;5.58;50.60
28428;BME280;15662;49.128;8.520;2022-12-15T05:46:28;99527.75;;;5.61;50.49
28428;BME280;15662;49.128;8.520;2022-12-15T05:48:56;99514.78;;;5.53;50.34
28428;BME280;15662;49.128;8.520;2022-12-15T05:51:24;99522.63;;;5.55;50.47
28428;BME280;15662;49.128;8.520;2022-12-15T05:53:53;99533.22;;;5.50;50.35
28428;BME280;15662;49.128;8.520;2022-12-15T05:56:21;99515.88;;;5.40;50.54
28428;BME280;15662;49.128;8.520;2022-12-15T05:58:49;99543.72;;;5.52;50.58
28428;BME280;15662;49.128;8.520;2022-12-15T06:01:18;99536.66;;;5.54;50.95
28428;BME280;15662;49.128;8.520;2022-12-15T06:03:46;99537.56;;;5.53;50.61
28428;BME280;15662;49.128;8.520;2022-12-15T06:06:15;99543.69;;;5.53;50.68
28428;BME280;15662;49.128;8.520;2022-12-15T06:08:43;99543.75;;;5.50;50.81
28428;BME280;15662;49.128;8.520;2022-12-15T06:11:14;99548.94;;;5.53;50.87
28428;BME280;15662;49.128;8.520;2022-12-15T06:13:43;99555.06;;;5.54;50.66
28428;BME280;15662;49.128;8.520;2022-12-15T06:16:18;99559.38;;;5.56;50.59
28428;BME280;15662;49.128;8.520;2022-12-15T06:18:51;99548.88;;;5.56;50.52
28428;BME280;15662;49.128;8.520;2022-12-15T06:21:31;99550.63;;;5.56;50.48
28428;BME280;15662;49.128;8.520;2022-12-15T06:24:06;99562.00;;;5.56;50.84
28428;BME280;15662;49.128;8.520;2022-12-15T06:26:38;99562.91;;;5.55;50.80
28428;BME280;15662;49.128;8.520;2022-12-15T06:29:10;99548.13;;;5.50;50.59
28428;BME280;15662;49.128;8.520;2022-12-15T06:31:40;99555.06;;;5.54;50.81
28428;BME280;15662;49.128;8.520;2022-12-15T06:34:14;99540.41;;;5.42;50.55
28428;BME280;15662;49.128;8.520;2022-12-15T06:36:42;99555.19;;;5.48;50.59
28428;BME280;15662;49.128;8.520;2022-12-15T06:39:13;99556.06;;;5.47;50.76
28428;BME280;15662;49.128;8.520;2022-12-15T06:41:42;99570.13;;;5.44;50.92
28428;BME280;15662;49.128;8.520;2022-12-15T06:44:14;99577.97;;;5.46;50.51
28428;BME280;15662;49.128;8.520;2022-12-15T06:46:44;99581.66;;;5.35;50.84
28428;BME280;15662;49.128;8.520;2022-12-15T06:49:13;99592.06;;;5.41;50.57
28428;BME280;15662;49.128;8.520;2022-12-15T06:51:42;99588.56;;;5.41;50.44
28428;BME280;15662;49.128;8.520;2022-12-15T06:54:12;99597.31;;;5.43;50.80
28428;BME280;15662;49.128;8.520;2022-12-15T06:56:40;99579.13;;;5.32;50.67
28428;BME280;15662;49.128;8.520;2022-12-15T06:59:10;99600.75;;;5.47;50.58
28428;BME280;15662;49.128;8.520;2022-12-15T07:01:39;99589.50;;;5.38;50.75
28428;BME280;15662;49.128;8.520;2022-12-15T07:04:11;99590.41;;;5.36;50.63
28428;BME280;15662;49.128;8.520;2022-12-15T07:06:41;99596.75;;;5.24;51.08
28428;BME280;15662;49.128;8.520;2022-12-15T07:09:13;99602.78;;;5.29;51.09
28428;BME280;15662;49.128;8.520;2022-12-15T07:11:45;99572.25;;;5.24;50.69
28428;BME280;15662;49.128;8.520;2022-12-15T07:14:20;99573.84;;;5.32;50.81
28428;BME280;15662;49.128;8.520;2022-12-15T07:16:53;99556.53;;;5.21;50.76
28428;BME280;15662;49.128;8.520;2022-12-15T07:19:24;99580.00;;;5.30;50.86
28428;BME280;15662;49.128;8.520;2022-12-15T07:21:57;99575.63;;;5.30;50.82
28428;BME280;15662;49.128;8.520;2022-12-15T07:24:28;99568.97;;;5.09;51.05
28428;BME280;15662;49.128;8.520;2022-12-15T07:26:57;99567.06;;;5.19;50.79
28428;BME280;15662;49.128;8.520;2022-12-15T07:29:27;99566.13;;;5.22;51.03
28428;BME280;15662;49.128;8.520;2022-12-15T07:31:58;99569.63;;;5.24;50.85
28428;BME280;15662;49.128;8.520;2022-12-15T07:34:30;99569.63;;;5.24;50.66
28428;BME280;15662;49.128;8.520;2022-12-15T07:36:59;99563.50;;;5.22;50.58
28428;BME280;15662;49.128;8.520;2022-12-15T07:39:27;99569.56;;;5.25;50.71
28428;BME280;15662;49.128;8.520;2022-12-15T07:41:55;99571.31;;;5.26;50.77
28428;BME280;15662;49.128;8.520;2022-12-15T07:44:25;99566.94;;;5.25;50.87
28428;BME280;15662;49.128;8.520;2022-12-15T07:46:54;99566.00;;;5.29;50.94
28428;BME280;15662;49.128;8.520;2022-12-15T07:49:22;99566.00;;;5.29;50.83
28428;BME280;15662;49.128;8.520;2022-12-15T07:51:50;99558.25;;;5.23;50.63
28428;BME280;15662;49.128;8.520;2022-12-15T07:54:18;99577.44;;;5.27;50.75
28428;BME280;15662;49.128;8.520;2022-12-15T07:56:47;99574.91;;;5.21;51.07
28428;BME280;15662;49.128;8.520;2022-12-15T07:59:17;99579.25;;;5.23;50.98
28428;BME280;15662;49.128;8.520;2022-12-15T08:01:46;99592.41;;;5.23;50.80
28428;BME280;15662;49.128;8.520;2022-12-15T08:04:15;99623.06;;;5.21;50.75
28428;BME280;15662;49.128;8.520;2022-12-15T08:06:44;99618.72;;;5.20;50.89
28428;BME280;15662;49.128;8.520;2022-12-15T08:09:12;99621.34;;;5.20;50.54
28428;BME280;15662;49.128;8.520;2022-12-15T08:11:40;99620.56;;;5.13;50.70
28428;BME280;15662;49.128;8.520;2022-12-15T08:14:10;99644.16;;;5.16;50.28
28428;BME280;15662;49.128;8.520;2022-12-15T08:16:50;99632.03;;;5.08;50.83
28428;BME280;15662;49.128;8.520;2022-12-15T08:19:24;99631.16;;;5.09;50.16
28428;BME280;15662;49.128;8.520;2022-12-15T08:21:52;99624.25;;;5.02;50.50
28428;BME280;15662;49.128;8.520;2022-12-15T08:24:23;99634.75;;;5.03;50.51
28428;BME280;15662;49.128;8.520;2022-12-15T08:26:51;99631.34;;;4.95;50.15
28428;BME280;15662;49.128;8.520;2022-12-15T08:29:21;99637.41;;;5.00;50.18
28428;BME280;15662;49.128;8.520;2022-12-15T08:32:10;99635.78;;;4.91;50.60
28428;BME280;15662;49.128;8.520;2022-12-15T08:34:39;99661.13;;;4.92;50.15
28428;BME280;15662;49.128;8.520;2022-12-15T08:37:09;99669.03;;;4.91;50.60
28428;BME280;15662;49.128;8.520;2022-12-15T08:39:39;99659.41;;;4.91;50.30
28428;BME280;15662;49.128;8.520;2022-12-15T08:42:08;99661.13;;;4.92;50.46
28428;BME280;15662;49.128;8.520;2022-12-15T08:44:37;99669.91;;;4.91;50.74
28428;BME280;15662;49.128;8.520;2022-12-15T08:47:06;99669.03;;;4.91;50.23
28428;BME280;15662;49.128;8.520;2022-12-15T08:49:35;99683.06;;;4.90;50.66
28428;BME280;15662;49.128;8.520;2022-12-15T08:52:03;99694.41;;;4.94;50.30
28428;BME280;15662;49.128;8.520;2022-12-15T08:54:31;99682.13;;;4.92;50.20
28428;BME280;15662;49.128;8.520;2022-12-15T08:57:02;99668.97;;;4.96;50.08
28428;BME280;15662;49.128;8.520;2022-12-15T08:59:30;99653.28;;;4.91;50.26
28428;BME280;15662;49.128;8.520;2022-12-15T09:01:59;99664.63;;;4.95;50.20
28428;BME280;15662;49.128;8.520;2022-12-15T09:04:28;99659.41;;;4.91;50.66
28428;BME280;15662;49.128;8.520;2022-12-15T09:06:57;99662.03;;;4.93;50.24
28428;BME280;15662;49.128;8.520;2022-12-15T09:09:26;99657.63;;;4.94;50.59
28428;BME280;15662;49.128;8.520;2022-12-15T09:11:55;99654.97;;;4.95;50.54
28428;BME280;15662;49.128;8.520;2022-12-15T09:14:23;99645.38;;;4.94;50.75
28428;BME280;15662;49.128;8.520;2022-12-15T09:16:56;99639.28;;;4.90;50.64
28428;BME280;15662;49.128;8.520;2022-12-15T09:19:25;99652.28;;;5.00;50.79
28428;BME280;15662;49.128;8.520;2022-12-15T09:21:53;99628.81;;;4.89;50.46
28428;BME280;15662;49.128;8.520;2022-12-15T09:24:22;99647.91;;;5.00;50.71
28428;BME280;15662;49.128;8.520;2022-12-15T09:27:01;99652.25;;;5.03;50.48
28428;BME280;15662;49.128;8.520;2022-12-15T09:29:32;99663.59;;;5.05;50.89
28428;BME280;15662;49.128;8.520;2022-12-15T09:32:02;99654.78;;;5.07;50.75
28428;BME280;15662;49.128;8.520;2022-12-15T09:34:39;99663.53;;;5.09;50.54
28428;BME280;15662;49.128;8.520;2022-12-15T09:37:08;99654.78;;;5.07;50.46
28428;BME280;15662;49.128;8.520;2022-12-15T09:39:36;99650.41;;;5.09;50.71
28428;BME280;15662;49.128;8.520;2022-12-15T09:42:25;99657.28;;;5.16;50.46
28428;BME280;15662;49.128;8.520;2022-12-15T09:45:21;99655.53;;;5.18;50.47
28428;BME280;15662;49.128;8.520;2022-12-15T09:48:05;99670.38;;;5.20;50.17
28428;BME280;15662;49.128;8.520;2022-12-15T09:50:38;99673.91;;;5.18;50.59
28428;BME280;15662;49.128;8.520;2022-12-15T09:53:09;99648.84;;;4.98;50.86
28428;BME280;15662;49.128;8.520;2022-12-15T09:56:28;99669.66;;;5.10;50.39
28428;BME280;15662;49.128;8.520;2022-12-15T10:04:57;99664.34;;;5.14;50.29
28428;BME280;15662;49.128;8.520;2022-12-15T10:07:37;99636.47;;;5.04;50.45
28428;BME280;15662;49.128;8.520;2022-12-15T10:10:24;99641.53;;;5.16;50.39
28428;BME280;15662;49.128;8.520;2022-12-15T10:12:57;99631.13;;;5.10;50.30
28428;BME280;15662;49.128;8.520;2022-12-15T10:15:40;99633.72;;;5.13;50.25
28428;BME280;15662;49.128;8.520;2022-12-15T10:19:12;99643.28;;;5.16;50.31
28428;BME280;15662;49.128;8.520;2022-12-15T10:21:43;99646.72;;;5.21;50.71
28428;BME280;15662;49.128;8.520;2022-12-15T10:24:22;99644.94;;;5.22;50.18
28428;BME280;15662;49.128;8.520;2022-12-15T10:30:16;99644.84;;;5.29;50.22
28428;BME280;15662;49.128;8.520;2022-12-15T10:33:17;99653.63;;;5.27;50.52
28428;BME280;15662;49.128;8.520;2022-12-15T10:35:52;99649.31;;;5.24;50.37
28428;BME280;15662;49.128;8.520;2022-12-15T10:41:05;99657.97;;;5.29;50.51
28428;BME280;15662;49.128;8.520;2022-12-15T10:43:41;99652.66;;;5.34;50.40
28428;BME280;15662;49.128;8.520;2022-12-15T10:46:30;99638.66;;;5.33;50.48
28428;BME280;15662;49.128;8.520;2022-12-15T10:49:21;99635.00;;;5.40;50.29
28428;BME280;15662;49.128;8.520;2022-12-15T10:51:57;99627.13;;;5.42;50.07
28428;BME280;15662;49.128;8.520;2022-12-15T10:54:35;99597.50;;;5.32;50.32
28428;BME280;15662;49.128;8.520;2022-12-15T10:57:39;99617.50;;;5.39;50.27
28428;BME280;15662;49.128;8.520;2022-12-15T11:00:31;99608.81;;;5.36;50.43
28428;BME280;15662;49.128;8.520;2022-12-15T11:03:00;99597.53;;;5.29;50.38
28428;BME280;15662;49.128;8.520;2022-12-15T11:05:28;99616.53;;;5.45;50.29
28428;BME280;15662;49.128;8.520;2022-12-15T11:08:28;99606.03;;;5.45;50.01
28428;BME280;15662;49.128;8.520;2022-12-15T11:10:58;99602.50;;;5.48;50.20
28428;BME280;15662;49.128;8.520;2022-12-15T11:14:09;99591.13;;;5.47;49.87
28428;BME280;15662;49.128;8.520;2022-12-15T11:16:48;99578.84;;;5.48;50.27
28428;BME280;15662;49.128;8.520;2022-12-15T11:22:38;99574.38;;;5.51;50.29
28428;BME280;15662;49.128;8.520;2022-12-15T11:25:48;99574.50;;;5.45;50.19
28428;BME280;15662;49.128;8.520;2022-12-15T11:28:37;99571.75;;;5.51;49.78
28428;BME280;15662;49.128;8.520;2022-12-15T11:31:21;99567.22;;;5.59;50.25
28428;BME280;15662;49.128;8.520;2022-12-15T11:33:54;99578.59;;;5.60;50.03
28428;BME280;15662;49.128;8.520;2022-12-15T11:37:09;99579.53;;;5.57;49.82
28428;BME280;15662;49.128;8.520;2022-12-15T11:40:11;99582.97;;;5.61;50.00
28428;BME280;15662;49.128;8.520;2022-12-15T11:43:33;99577.69;;;5.62;50.28
28428;BME280;15662;49.128;8.520;2022-12-15T11:46:50;99569.72;;;5.67;49.88
28428;BME280;15662;49.128;8.520;2022-12-15T12:00:22;99516.06;;;5.76;49.86
28428;BME280;15662;49.128;8.520;2022-12-15T12:05:39;99507.22;;;5.80;49.87
28428;BME280;15662;49.128;8.520;2022-12-15T12:17:45;99496.47;;;5.93;49.42
28428;BME280;15662;49.128;8.520;2022-12-15T12:27:09;99497.16;;;6.03;49.62
28428;BME280;15662;49.128;8.520;2022-12-15T12:29:54;99470.78;;;6.06;49.62
28428;BME280;15662;49.128;8.520;2022-12-15T12:35:59;99489.03;;;6.14;49.44
28428;BME280;15662;49.128;8.520;2022-12-15T12:38:36;99469.03;;;6.07;49.45
28428;BME280;15662;49.128;8.520;2022-12-15T12:43:55;99465.19;;;6.20;49.57
28428;BME280;15662;49.128;8.520;2022-12-15T12:46:35;99460.03;;;6.17;49.46
28428;BME280;15662;49.128;8.520;2022-12-15T12:49:39;99471.25;;;6.24;49.59
28428;BME280;15662;49.128;8.520;2022-12-15T12:52:32;99464.31;;;6.21;49.15
28428;BME280;15662;49.128;8.520;2022-12-15T12:57:54;99464.25;;;6.24;49.44
28428;BME280;15662;49.128;8.520;2022-12-15T13:00:30;99467.63;;;6.29;49.56
28428;BME280;15662;49.128;8.520;2022-12-15T13:03:16;99475.41;;;6.34;49.25
28428;BME280;15662;49.128;8.520;2022-12-15T13:05:48;99464.03;;;6.33;49.40
28428;BME280;15662;49.128;8.520;2022-12-15T13:08:27;99461.28;;;6.38;49.39
28428;BME280;15662;49.128;8.520;2022-12-15T13:14:42;99412.47;;;6.25;49.06
28428;BME280;15662;49.128;8.520;2022-12-15T13:17:31;99426.28;;;6.34;49.21
28428;BME280;15662;49.128;8.520;2022-12-15T13:20:24;99431.66;;;6.30;48.86
28428;BME280;15662;49.128;8.520;2022-12-15T13:44:47;99421.31;;;6.20;48.71
28428;BME280;15662;49.128;8.520;2022-12-15T13:47:26;99416.22;;;6.16;48.86
28428;BME280;15662;49.128;8.520;2022-12-15T13:50:27;99417.09;;;6.15;48.99
28428;BME280;15662;49.128;8.520;2022-12-15T13:53:02;99418.19;;;6.06;49.06
28428;BME280;15662;49.128;8.520;2022-12-15T13:59:44;99418.38;;;5.97;48.72
28428;BME280;15662;49.128;8.520;2022-12-15T14:02:37;99418.44;;;5.94;48.80
28428;BME280;15662;49.128;8.520;2022-12-15T14:05:12;99419.38;;;5.91;48.95
28428;BME280;15662;49.128;8.520;2022-12-15T14:08:00;99408.97;;;5.84;48.67
28428;BME280;15662;49.128;8.520;2022-12-15T14:10:44;99390.81;;;5.73;48.65
28428;BME280;15662;49.128;8.520;2022-12-15T14:13:30;99405.63;;;5.77;48.61
28428;BME280;15662;49.128;8.520;2022-12-15T14:16:18;99405.66;;;5.76;49.06
28428;BME280;15662;49.128;8.520;2022-12-15T14:19:15;99408.66;;;5.59;48.96
28428;BME280;15662;49.128;8.520;2022-12-15T14:21:56;99414.66;;;5.64;48.92
28428;BME280;15662;49.128;8.520;2022-12-15T14:24:30;99411.13;;;5.65;48.67
28428;BME280;15662;49.128;8.520;2022-12-15T14:27:07;99415.56;;;5.63;48.67
28428;BME280;15662;49.128;8.520;2022-12-15T14:29:38;99427.81;;;5.64;48.71
28428;BME280;15662;49.128;8.520;2022-12-15T14:32:08;99420.78;;;5.64;48.47
28428;BME280;15662;49.128;8.520;2022-12-15T14:34:39;99423.41;;;5.64;48.86
28428;BME280;15662;49.128;8.520;2022-12-15T14:37:17;99419.97;;;5.61;48.57
28428;BME280;15662;49.128;8.520;2022-12-15T15:07:17;99448.22;;;5.05;48.55
28428;BME280;15662;49.128;8.520;2022-12-15T15:09:46;99436.03;;;5.01;48.14
28428;BME280;15662;49.128;8.520;2022-12-15T15:12:21;99434.28;;;5.03;48.54
28428;BME280;15662;49.128;8.520;2022-12-15T15:15:06;99438.75;;;4.98;48.58
28428;BME280;15662;49.128;8.520;2022-12-15T15:17:41;99438.75;;;4.96;48.58
28428;BME280;15662;49.128;8.520;2022-12-15T15:20:32;99434.47;;;4.90;48.26
28428;BME280;15662;49.128;8.520;2022-12-15T15:23:17;99442.34;;;4.90;48.52
28428;BME280;15662;49.128;8.520;2022-12-15T15:26:05;99433.91;;;4.73;48.58
28428;BME280;15662;49.128;8.520;2022-12-15T15:28:39;99440.88;;;4.76;48.65
28428;BME280;15662;49.128;8.520;2022-12-15T15:31:28;99433.81;;;4.78;48.61
28428;BME280;15662;49.128;8.520;2022-12-15T15:34:09;99428.75;;;4.69;48.58
28428;BME280;15662;49.128;8.520;2022-12-15T15:36:39;99439.16;;;4.72;48.77
28428;BME280;15662;49.128;8.520;2022-12-15T15:39:14;99435.69;;;4.71;48.35
28428;BME280;15662;49.128;8.520;2022-12-15T15:41:43;99426.16;;;4.65;48.58
28428;BME280;15662;49.128;8.520;2022-12-15T15:44:14;99415.78;;;4.58;48.61
28428;BME280;15662;49.128;8.520;2022-12-15T15:46:51;99432.31;;;4.63;48.38
28428;BME280;15662;49.128;8.520;2022-12-15T15:49:21;99431.53;;;4.59;48.63
28428;BME280;15662;49.128;8.520;2022-12-15T15:51:51;99435.97;;;4.54;48.46
28428;BME280;15662;49.128;8.520;2022-12-15T15:54:23;99436.88;;;4.53;48.71
28428;BME280;15662;49.128;8.520;2022-12-15T15:56:56;99438.66;;;4.50;48.58
28428;BME280;15662;49.128;8.520;2022-12-15T15:59:26;99434.41;;;4.44;48.64
28428;BME280;15662;49.128;8.520;2022-12-15T16:01:55;99424.00;;;4.36;49.16
28428;BME280;15662;49.128;8.520;2022-12-15T16:04:26;99437.91;;;4.42;48.58
28428;BME280;15662;49.128;8.520;2022-12-15T16:06:56;99430.13;;;4.38;48.89
28428;BME280;15662;49.128;8.520;2022-12-15T16:09:39;99446.66;;;4.44;49.10
28428;BME280;15662;49.128;8.520;2022-12-15T16:12:39;99442.31;;;4.41;48.95
28428;BME280;15662;49.128;8.520;2022-12-15T16:15:19;99438.09;;;4.31;48.62
28428;BME280;15662;49.128;8.520;2022-12-15T16:17:48;99432.88;;;4.29;49.12
28428;BME280;15662;49.128;8.520;2022-12-15T16:20:19;99428.56;;;4.25;49.26
28428;BME280;15662;49.128;8.520;2022-12-15T16:23:30;99442.63;;;4.18;49.46
28428;BME280;15662;49.128;8.520;2022-12-15T16:25:59;99439.91;;;4.26;49.28
28428;BME280;15662;49.128;8.520;2022-12-15T16:28:30;99434.88;;;4.12;49.21
28428;BME280;15662;49.128;8.520;2022-12-15T16:31:00;99417.38;;;4.14;49.51
28428;BME280;15662;49.128;8.520;2022-12-15T16:33:28;99419.81;;;4.23;49.36
28428;BME280;15662;49.128;8.520;2022-12-15T16:35:58;99428.53;;;4.27;49.58
28428;BME280;15662;49.128;8.520;2022-12-15T16:38:29;99429.34;;;4.30;48.82
28428;BME280;15662;49.128;8.520;2022-12-15T16:41:29;99444.41;;;4.18;49.45
28428;BME280;15662;49.128;8.520;2022-12-15T16:43:57;99437.31;;;4.23;49.00
28428;BME280;15662;49.128;8.520;2022-12-15T16:46:27;99420.81;;;4.16;49.19
28428;BME280;15662;49.128;8.520;2022-12-15T16:48:58;99444.25;;;4.27;49.47
28428;BME280;15662;49.128;8.520;2022-12-15T16:51:41;99435.47;;;4.31;49.16
28428;BME280;15662;49.128;8.520;2022-12-15T16:54:21;99432.94;;;4.25;49.19
28428;BME280;15662;49.128;8.520;2022-12-15T16:56:51;99441.75;;;4.21;49.04
28428;BME280;15662;49.128;8.520;2022-12-15T16:59:25;99446.06;;;4.25;49.73
28428;BME280;15662;49.128;8.520;2022-12-15T17:02:26;99443.44;;;4.23;49.59
28428;BME280;15662;49.128;8.520;2022-12-15T17:04:55;99436.53;;;4.18;49.53
28428;BME280;15662;49.128;8.520;2022-12-15T17:07:26;99429.59;;;4.15;49.49
28428;BME280;15662;49.128;8.520;2022-12-15T17:09:56;99422.91;;;3.93;49.57
28428;BME280;15662;49.128;8.520;2022-12-15T17:12:25;99440.22;;;4.06;49.77
28428;BME280;15662;49.128;8.520;2022-12-15T17:14:54;99424.50;;;4.04;49.84
28428;BME280;15662;49.128;8.520;2022-12-15T17:17:25;99437.47;;;4.13;50.13
28428;BME280;15662;49.128;8.520;2022-12-15T17:19:55;99433.97;;;4.13;49.93
28428;BME280;15662;49.128;8.520;2022-12-15T17:22:46;99421.75;;;4.12;50.13
28428;BME280;15662;49.128;8.520;2022-12-15T17:25:22;99419.06;;;4.17;50.43
28428;BME280;15662;49.128;8.520;2022-12-15T17:30:51;99416.34;;;4.23;50.18
28428;BME280;15662;49.128;8.520;2022-12-15T17:33:26;99415.38;;;4.28;50.53
28428;BME280;15662;49.128;8.520;2022-12-15T17:36:00;99410.13;;;4.30;49.97
28428;BME280;15662;49.128;8.520;2022-12-15T17:38:30;99395.25;;;4.30;50.53
28428;BME280;15662;49.128;8.520;2022-12-15T17:41:00;99397.69;;;4.41;50.08
28428;BME280;15662;49.128;8.520;2022-12-15T17:43:31;99402.00;;;4.45;50.00
28428;BME280;15662;49.128;8.520;2022-12-15T17:46:03;99395.00;;;4.46;50.12
28428;BME280;15662;49.128;8.520;2022-12-15T17:48:31;99391.44;;;4.48;50.10
28428;BME280;15662;49.128;8.520;2022-12-15T17:51:01;99386.94;;;4.56;50.49
28428;BME280;15662;49.128;8.520;2022-12-15T17:53:30;99389.56;;;4.56;50.36
28428;BME280;15662;49.128;8.520;2022-12-15T17:56:01;99396.59;;;4.56;50.43
28428;BME280;15662;49.128;8.520;2022-12-15T17:58:30;99384.41;;;4.53;50.24
28428;BME280;15662;49.128;8.520;2022-12-15T18:00:58;99386.03;;;4.57;50.50
28428;BME280;15662;49.128;8.520;2022-12-15T18:03:29;99384.50;;;4.46;50.54
28428;BME280;15662;49.128;8.520;2022-12-15T18:05:58;99376.66;;;4.44;50.07
28428;BME280;15662;49.128;8.520;2022-12-15T18:08:30;99389.66;;;4.52;50.01
28428;BME280;15662;49.128;8.520;2022-12-15T18:11:01;99397.56;;;4.50;50.35
28428;BME280;15662;49.128;8.520;2022-12-15T18:13:32;99385.41;;;4.43;50.21
28428;BME280;15662;49.128;8.520;2022-12-15T18:16:03;99396.78;;;4.44;50.60
28428;BME280;15662;49.128;8.520;2022-12-15T18:18:33;99384.53;;;4.43;50.56
28428;BME280;15662;49.128;8.520;2022-12-15T18:41:26;99366.72;;;5.51;48.44
28428;BME280;15662;49.128;8.520;2022-12-15T18:43:55;99370.63;;;5.33;48.91
28428;BME280;15662;49.128;8.520;2022-12-15T18:46:25;99360.31;;;5.24;49.35
28428;BME280;15662;49.128;8.520;2022-12-15T18:48:55;99369.13;;;5.20;49.60
28428;BME280;15662;49.128;8.520;2022-12-15T18:51:26;99363.94;;;5.17;49.85
28428;BME280;15662;49.128;8.520;2022-12-15T18:54:01;99353.56;;;5.11;49.57
28428;BME280;15662;49.128;8.520;2022-12-15T18:56:29;99352.78;;;5.06;49.58
28428;BME280;15662;49.128;8.520;2022-12-15T18:59:00;99350.28;;;5.00;49.57
28428;BME280;15662;49.128;8.520;2022-12-15T19:01:29;99345.97;;;4.96;49.79
28428;BME280;15662;49.128;8.520;2022-12-15T19:04:00;99352.25;;;4.88;49.41
28428;BME280;15662;49.128;8.520;2022-12-15T19:06:37;99364.56;;;4.85;49.93
28428;BME280;15662;49.128;8.520;2022-12-15T19:09:19;99360.22;;;4.82;50.07
28428;BME280;15662;49.128;8.520;2022-12-15T19:11:49;99355.94;;;4.78;50.11
28428;BME280;15662;49.128;8.520;2022-12-15T19:14:49;99351.59;;;4.76;50.04
28428;BME280;15662;49.128;8.520;2022-12-15T19:17:22;99354.22;;;4.76;49.81
28428;BME280;15662;49.128;8.520;2022-12-15T19:20:18;99366.44;;;4.78;49.97
28428;BME280;15662;49.128;8.520;2022-12-15T19:23:22;99359.72;;;4.63;50.00
28428;BME280;15662;49.128;8.520;2022-12-15T19:25:51;99340.44;;;4.64;50.10
28428;BME280;15662;49.128;8.520;2022-12-15T19:28:22;99361.19;;;4.78;50.24
28428;BME280;15662;49.128;8.520;2022-12-15T19:30:51;99359.47;;;4.76;49.80
28428;BME280;15662;49.128;8.520;2022-12-15T19:33:20;99367.28;;;4.80;49.73
28428;BME280;15662;49.128;8.520;2022-12-15T19:35:50;99361.13;;;4.81;49.66
28428;BME280;15662;49.128;8.520;2022-12-15T19:38:24;99355.75;;;4.87;49.70
28428;BME280;15662;49.128;8.520;2022-12-15T19:40:54;99356.66;;;4.88;49.59
28428;BME280;15662;49.128;8.520;2022-12-15T19:43:24;99346.19;;;4.85;49.91
28428;BME280;15662;49.128;8.520;2022-12-15T19:45:52;99359.22;;;4.89;49.45
28428;BME280;15662;49.128;8.520;2022-12-15T19:48:20;99360.09;;;4.90;50.07
28428;BME280;15662;49.128;8.520;2022-12-15T19:50:51;99369.66;;;4.92;49.60
28428;BME280;15662;49.128;8.520;2022-12-15T19:53:24;99365.31;;;4.93;49.78
28428;BME280;15662;49.128;8.520;2022-12-15T19:55:57;99362.59;;;4.96;49.52
28428;BME280;15662;49.128;8.520;2022-12-15T19:58:31;99354.72;;;4.98;49.54
28428;BME280;15662;49.128;8.520;2022-12-15T20:01:05;99355.53;;;5.00;49.49
28428;BME280;15662;49.128;8.520;2022-12-15T20:03:34;99355.50;;;5.03;49.44
28428;BME280;15662;49.128;8.520;2022-12-15T20:06:15;99359.66;;;5.11;49.24
28428;BME280;15662;49.128;8.520;2022-12-15T20:08:50;99363.16;;;5.12;49.11
28428;BME280;15662;49.128;8.520;2022-12-15T20:11:25;99361.34;;;5.15;49.19
28428;BME280;15662;49.128;8.520;2022-12-15T20:13:54;99364.84;;;5.16;49.44
28428;BME280;15662;49.128;8.520;2022-12-15T20:16:23;99360.44;;;5.18;49.50
28428;BME280;15662;49.128;8.520;2022-12-15T20:18:54;99354.31;;;5.17;49.13
28428;BME280;15662;49.128;8.520;2022-12-15T20:21:29;99359.53;;;5.19;49.38
28428;BME280;15662;49.128;8.520;2022-12-15T20:24:04;99351.69;;;5.17;49.24
28428;BME280;15662;49.128;8.520;2022-12-15T20:26:36;99354.34;;;5.16;49.15
28428;BME280;15662;49.128;8.520;2022-12-15T20:29:10;99361.31;;;5.17;49.12
28428;BME280;15662;49.128;8.520;2022-12-15T20:31:39;99363.06;;;5.18;48.85
28428;BME280;15662;49.128;8.520;2022-12-15T20:34:07;99355.19;;;5.18;49.01
28428;BME280;15662;49.128;8.520;2022-12-15T20:36:35;99359.56;;;5.17;48.96
28428;BME280;15662;49.128;8.520;2022-12-15T20:39:03;99361.34;;;5.15;48.72
28428;BME280;15662;49.128;8.520;2022-12-15T20:41:37;99363.97;;;5.15;49.31
28428;BME280;15662;49.128;8.520;2022-12-15T20:44:11;99360.44;;;5.16;49.15
28428;BME280;15662;49.128;8.520;2022-12-15T20:46:40;99357.84;;;5.15;49.34
28428;BME280;15662;49.128;8.520;2022-12-15T20:49:18;99364.81;;;5.17;48.74
28428;BME280;15662;49.128;8.520;2022-12-15T20:51:48;99355.19;;;5.16;49.19
28428;BME280;15662;49.128;8.520;2022-12-15T20:54:20;99363.09;;;5.15;48.91
28428;BME280;15662;49.128;8.520;2022-12-15T20:56:49;99368.50;;;5.09;49.17
28428;BME280;15662;49.128;8.520;2022-12-15T20:59:18;99371.97;;;5.09;48.63
28428;BME280;15662;49.128;8.520;2022-12-15T21:01:46;99373.75;;;5.07;49.26
28428;BME280;15662;49.128;8.520;2022-12-15T21:04:28;99362.44;;;5.05;49.14
28428;BME280;15662;49.128;8.520;2022-12-15T21:06:56;99376.47;;;5.04;48.69
28428;BME280;15662;49.128;8.520;2022-12-15T21:09:25;99378.22;;;5.04;48.86
28428;BME280;15662;49.128;8.520;2022-12-15T21:11:53;99379.94;;;5.05;48.92
28428;BME280;15662;49.128;8.520;2022-12-15T21:14:23;99372.09;;;5.03;48.93
28428;BME280;15662;49.128;8.520;2022-12-15T21:16:51;99379.13;;;5.03;48.87
28428;BME280;15662;49.128;8.520;2022-12-15T21:19:20;99378.22;;;5.02;49.24
28428;BME280;15662;49.128;8.520;2022-12-15T21:21:51;99377.38;;;5.03;49.26
28428;BME280;15662;49.128;8.520;2022-12-15T21:24:24;99380.06;;;4.99;49.30